Terminal Aerodrome Forecast
Issued by NWS Mobile, AL

Home | Current Version | Previous Version | Text Only | Print | Product List | Glossary On
Versions: 1 2 3 4 5 6 7 8 9 10 11 12 13
000
FTUS44 KMOB 202320
TAFPNS
TAF
KPNS 202320Z 2100/2124 08003KT P6SM VCSH SCT035 SCT120 BKN250
     FM210200 22005KT P6SM SCT050 BKN150
      TEMPO 2110/2113 5SM BR
     FM211600 10006KT P6SM VCSH BKN035 BKN250 PROB30 2118/2124 5SM
      TSRA BKN030CB=

USA.gov is the U.S. government's official web portal to all federal, state and local government web resources and services.